Time;durP1;ratioP1;P1;durP2;ratioP2;P2;SDS_P1;SDS_P2;PMS_P1;PMS_P2;Temp;Humidity;BMP_temperature;BMP_pressure;BME280_temperature;BME280_humidity;BME280_pressure;Samples;Min_cycle;Max_cycle;Signal;HPM_P1;HPM_P2
2023/03/04 10:34:05;;;;;;;10.35;1.67;;;18.50;74.20;;;;;;5110881;27;20550;-39
2023/03/04 10:36:33;;;;;;;4.38;1.20;;;18.50;75.10;;;;;;5091359;28;20105;-38
2023/03/04 10:38:59;;;;;;;7.57;1.50;;;18.60;75.40;;;;;;5090752;28;20070;-39
2023/03/04 10:41:26;;;;;;;6.60;1.33;;;18.80;75.50;;;;;;5092750;28;20072;-39
2023/03/04 10:43:53;;;;;;;8.05;1.60;;;19.00;75.30;;;;;;5111499;28;20460;-38
2023/03/04 10:46:20;;;;;;;6.95;1.65;;;19.20;75.30;;;;;;5093508;28;20031;-38
2023/03/04 10:48:46;;;;;;;5.55;1.20;;;19.40;75.10;;;;;;5091491;28;20040;-38
2023/03/04 10:51:13;;;;;;;7.78;1.50;;;19.50;74.80;;;;;;5089816;28;20044;-38
2023/03/04 10:53:39;;;;;;;8.68;1.60;;;19.60;74.50;;;;;;5090962;28;20462;-38
2023/03/04 10:56:06;;;;;;;7.95;1.25;;;19.80;74.20;;;;;;5090386;28;20040;-38
2023/03/04 10:58:33;;;;;;;5.28;1.48;;;20.00;74.20;;;;;;5089909;28;20028;-39
2023/03/04 11:00:59;;;;;;;5.90;1.38;;;20.10;73.90;;;;;;5090902;28;20454;-38
2023/03/04 11:03:26;;;;;;;5.63;1.38;;;20.10;73.00;;;;;;5090588;28;20109;-39
2023/03/04 11:05:55;;;;;;;5.30;1.60;;;20.20;72.50;;;;;;5089949;28;20433;-39
2023/03/04 11:08:22;;;;;;;4.85;1.23;;;20.30;72.20;;;;;;5091355;28;20417;-39
2023/03/04 11:10:50;;;;;;;8.48;1.55;;;20.30;71.80;;;;;;5089968;28;20041;-38
2023/03/04 11:13:17;;;;;;;8.70;1.50;;;20.30;71.60;;;;;;5090434;28;20044;-38
2023/03/04 11:15:44;;;;;;;8.75;1.60;;;20.30;71.90;;;;;;5091257;28;20056;-38
2023/03/04 11:18:10;;;;;;;6.43;1.42;;;20.30;72.10;;;;;;5089289;28;20117;-39
2023/03/04 11:20:38;;;;;;;8.00;1.48;;;20.40;72.40;;;;;;5094582;28;20051;-38
2023/03/04 11:23:05;;;;;;;6.03;1.50;;;20.40;72.10;;;;;;5066242;28;20047;-39
2023/03/04 11:25:32;;;;;;;10.63;1.48;;;20.40;72.40;;;;;;5086349;28;20115;-39
2023/03/04 11:27:58;;;;;;;5.40;1.38;;;20.50;72.70;;;;;;5088164;28;20044;-38
2023/03/04 11:30:25;;;;;;;9.63;1.67;;;20.60;72.90;;;;;;5090983;28;20041;-38
2023/03/04 11:32:52;;;;;;;6.15;1.70;;;20.60;73.00;;;;;;5075681;28;20058;-39
2023/03/04 11:35:19;;;;;;;5.43;1.33;;;20.70;73.10;;;;;;5105766;28;20043;-39
2023/03/04 11:37:46;;;;;;;8.98;2.00;;;20.70;73.30;;;;;;5100762;28;20140;-38
2023/03/04 11:40:12;;;;;;;3.38;1.30;;;20.70;73.30;;;;;;5087947;28;20381;-39
2023/03/04 11:42:39;;;;;;;5.40;1.48;;;20.80;73.50;;;;;;5098926;28;20477;-39
2023/03/04 11:45:06;;;;;;;5.55;1.50;;;20.80;73.60;;;;;;5096136;28;20040;-38
2023/03/04 11:47:51;;;;;;;5.80;1.33;;;20.80;73.60;;;;;;5094747;28;20048;-39
2023/03/04 11:50:18;;;;;;;5.20;1.60;;;20.90;73.80;;;;;;5076135;28;20041;-39
2023/03/04 11:52:44;;;;;;;9.10;1.65;;;20.90;73.90;;;;;;5075921;28;20397;-38
2023/03/04 11:55:12;;;;;;;6.50;1.42;;;20.90;73.80;;;;;;5076299;28;20044;-38
2023/03/04 11:57:39;;;;;;;6.75;1.58;;;20.90;74.00;;;;;;5075709;28;20059;-39
2023/03/04 12:00:06;;;;;;;6.15;1.70;;;21.00;74.10;;;;;;5076913;28;20378;-38
2023/03/04 12:02:37;;;;;;;5.07;1.60;;;21.00;74.10;;;;;;5076262;28;20131;-39
2023/03/04 12:05:03;;;;;;;6.60;2.00;;;21.00;74.00;;;;;;5075802;28;20039;-38
2023/03/04 12:07:30;;;;;;;4.63;1.58;;;21.00;74.10;;;;;;5076204;28;20036;-38
2023/03/04 12:09:57;;;;;;;4.75;1.52;;;21.10;74.10;;;;;;5076400;28;20538;-38
2023/03/04 12:12:23;;;;;;;6.72;1.77;;;21.10;74.20;;;;;;5074830;28;20040;-38
2023/03/04 12:14:50;;;;;;;5.28;1.60;;;21.00;74.30;;;;;;5077274;28;20055;-39
2023/03/04 12:17:16;;;;;;;4.72;1.85;;;21.00;72.60;;;;;;5096073;28;20052;-39
2023/03/04 12:19:43;;;;;;;6.30;1.70;;;21.00;71.90;;;;;;5095723;28;20397;-39
2023/03/04 12:22:10;;;;;;;5.32;1.80;;;20.90;71.70;;;;;;5096581;28;20055;-39
2023/03/04 12:24:37;;;;;;;5.15;1.73;;;20.80;72.00;;;;;;5095579;28;20458;-38
2023/03/04 12:27:03;;;;;;;7.00;1.80;;;20.80;72.40;;;;;;5096269;28;20040;-39
2023/03/04 12:29:30;;;;;;;5.35;1.70;;;20.80;71.90;;;;;;5096521;28;20131;-39
2023/03/04 12:31:56;;;;;;;6.85;1.67;;;20.70;71.90;;;;;;5090322;28;20389;-39
2023/03/04 12:34:23;;;;;;;8.18;1.60;;;20.70;72.20;;;;;;5075358;28;20052;-39
2023/03/04 12:36:50;;;;;;;4.82;1.70;;;20.70;71.90;;;;;;5075407;28;20402;-38
2023/03/04 12:39:16;;;;;;;5.00;1.85;;;20.70;72.00;;;;;;5073845;28;20067;-39
2023/03/04 12:41:43;;;;;;;4.53;1.70;;;20.60;71.90;;;;;;5069085;28;20447;-39
2023/03/04 12:44:10;;;;;;;6.28;1.80;;;20.60;71.80;;;;;;5054667;28;20453;-38
2023/03/04 12:46:37;;;;;;;6.63;2.30;;;20.60;71.70;;;;;;5054522;28;20036;-39
2023/03/04 12:49:03;;;;;;;4.80;1.83;;;20.50;71.60;;;;;;5055813;28;20438;-38
2023/03/04 12:51:30;;;;;;;5.68;1.67;;;20.50;71.60;;;;;;5054787;28;20040;-39
2023/03/04 12:53:57;;;;;;;4.95;1.70;;;20.50;71.70;;;;;;5055471;28;20044;-39
2023/03/04 12:56:23;;;;;;;5.28;1.67;;;20.50;71.80;;;;;;5054401;28;20115;-38
2023/03/04 12:58:50;;;;;;;5.05;1.65;;;20.50;71.60;;;;;;5055170;28;20044;-39
2023/03/04 13:01:17;;;;;;;4.95;1.60;;;20.50;71.90;;;;;;5055071;28;20040;-38
2023/03/04 13:03:43;;;;;;;5.25;1.73;;;20.50;72.40;;;;;;5055661;28;20041;-38
2023/03/04 13:06:10;;;;;;;4.20;1.60;;;20.50;72.30;;;;;;5054537;28;20041;-38
2023/03/04 13:08:37;;;;;;;6.25;1.75;;;20.50;72.00;;;;;;5055083;28;20051;-39
2023/03/04 13:11:03;;;;;;;5.22;1.65;;;20.50;71.90;;;;;;5054410;28;20044;-38
2023/03/04 13:13:30;;;;;;;4.28;1.50;;;20.50;71.60;;;;;;5055347;28;20071;-39
2023/03/04 13:15:57;;;;;;;5.35;1.70;;;20.50;71.60;;;;;;5036925;28;20049;-39
2023/03/04 13:18:24;;;;;;;4.78;1.58;;;20.50;71.80;;;;;;5054527;28;20055;-38
2023/03/04 13:20:50;;;;;;;5.53;1.70;;;20.50;71.90;;;;;;5037856;28;20041;-39
2023/03/04 13:23:17;;;;;;;3.70;1.40;;;20.50;72.10;;;;;;5054743;28;20037;-38
2023/03/04 13:25:44;;;;;;;4.15;1.45;;;20.50;72.00;;;;;;5054006;28;20041;-38
2023/03/04 13:28:11;;;;;;;4.53;1.60;;;20.50;72.00;;;;;;5055366;28;20049;-39
2023/03/04 13:30:38;;;;;;;4.60;1.63;;;20.50;72.30;;;;;;5054623;28;20048;-38
2023/03/04 13:33:05;;;;;;;5.22;1.50;;;20.50;72.30;;;;;;5057008;28;20056;-38
2023/03/04 13:35:32;;;;;;;6.60;1.60;;;20.50;72.00;;;;;;5075140;28;20044;-39
2023/03/04 13:37:59;;;;;;;4.93;1.63;;;20.50;71.80;;;;;;5063392;28;20158;-38
2023/03/04 13:40:27;;;;;;;3.75;1.42;;;20.50;71.70;;;;;;5074734;28;20079;-38
2023/03/04 13:42:53;;;;;;;4.63;1.50;;;20.50;72.00;;;;;;5070492;28;20040;-38
2023/03/04 13:45:20;;;;;;;3.47;1.45;;;20.50;72.00;;;;;;5073145;28;20041;-38
2023/03/04 13:47:48;;;;;;;5.03;1.40;;;20.50;72.00;;;;;;5059621;28;20128;-38
2023/03/04 13:50:14;;;;;;;4.57;1.60;;;20.50;71.90;;;;;;5054186;28;20033;-38
2023/03/04 13:52:43;;;;;;;5.28;1.55;;;20.50;71.90;;;;;;5051223;28;20048;-38
2023/03/04 13:55:10;;;;;;;4.53;1.60;;;20.50;72.00;;;;;;5054750;28;20044;-39
2023/03/04 13:57:36;;;;;;;5.32;1.60;;;20.50;71.90;;;;;;5053076;28;20045;-39
2023/03/04 14:00:04;;;;;;;4.10;1.60;;;20.50;72.00;;;;;;5054617;28;20041;-39
2023/03/04 14:02:34;;;;;;;3.92;1.50;;;20.50;72.10;;;;;;5054837;28;20384;-38
2023/03/04 14:05:01;;;;;;;3.90;1.48;;;20.50;71.70;;;;;;5053627;28;20119;-38
2023/03/04 14:07:27;;;;;;;4.03;1.30;;;20.40;72.00;;;;;;5053867;28;20408;-38
2023/03/04 14:09:54;;;;;;;4.63;1.60;;;20.50;72.10;;;;;;5067621;28;20033;-38
2023/03/04 14:12:21;;;;;;;3.88;1.33;;;20.50;72.30;;;;;;5070768;28;20068;-39
2023/03/04 14:14:48;;;;;;;5.38;1.60;;;20.50;73.10;;;;;;5074112;28;20102;-38
2023/03/04 14:17:14;;;;;;;3.60;1.50;;;20.50;73.40;;;;;;5074347;28;20048;-39
2023/03/04 14:19:41;;;;;;;4.97;1.65;;;20.60;73.30;;;;;;5073461;28;20098;-39
2023/03/04 14:22:07;;;;;;;4.20;1.45;;;20.60;73.40;;;;;;5073614;28;20051;-39
2023/03/04 14:24:34;;;;;;;4.45;1.58;;;20.60;73.50;;;;;;5073511;28;20044;-38
2023/03/04 14:27:01;;;;;;;4.10;1.50;;;20.60;73.50;;;;;;5074070;28;20036;-38
2023/03/04 14:29:28;;;;;;;4.30;1.60;;;20.60;73.70;;;;;;5072297;28;20455;-39
2023/03/04 14:31:54;;;;;;;3.28;1.40;;;20.60;73.70;;;;;;5070323;28;20473;-38
2023/03/04 14:34:21;;;;;;;4.93;1.70;;;20.70;73.80;;;;;;5054059;28;20078;-39
2023/03/04 14:36:48;;;;;;;4.25;1.70;;;20.70;73.70;;;;;;5053617;28;20048;-39
2023/03/04 14:39:15;;;;;;;4.93;1.60;;;20.70;72.40;;;;;;5053303;28;20045;-38
2023/03/04 14:41:44;;;;;;;4.93;1.88;;;20.60;72.20;;;;;;5054069;28;20048;-40
2023/03/04 14:44:11;;;;;;;5.78;1.60;;;20.60;72.10;;;;;;5053119;28;20052;-39
2023/03/04 14:46:39;;;;;;;5.05;1.60;;;20.60;72.00;;;;;;5053103;28;20037;-38
2023/03/04 14:49:06;;;;;;;5.55;1.73;;;20.60;71.80;;;;;;5054250;28;20056;-39
2023/03/04 14:51:33;;;;;;;4.05;1.55;;;20.50;71.80;;;;;;5052660;28;20044;-39
2023/03/04 14:53:59;;;;;;;5.07;1.83;;;20.50;71.80;;;;;;5054076;28;20056;-38
2023/03/04 14:56:26;;;;;;;6.25;1.80;;;20.50;72.00;;;;;;5036116;28;20049;-39
2023/03/04 14:58:53;;;;;;;4.88;1.63;;;20.50;72.30;;;;;;5052094;28;20061;-39
2023/03/04 15:01:19;;;;;;;4.28;1.80;;;20.50;72.80;;;;;;5053892;28;20119;-39
2023/03/04 15:03:46;;;;;;;4.57;1.63;;;20.50;72.90;;;;;;5053748;28;20055;-39
2023/03/04 15:06:13;;;;;;;3.88;1.40;;;20.50;73.00;;;;;;5051692;28;20100;-38
2023/03/04 15:08:40;;;;;;;3.90;1.60;;;20.50;73.10;;;;;;5054072;28;20048;-39
2023/03/04 15:11:06;;;;;;;5.22;1.50;;;20.60;73.00;;;;;;5052348;28;20041;-39
2023/03/04 15:13:33;;;;;;;4.57;1.58;;;20.50;72.90;;;;;;5053232;28;20044;-38
2023/03/04 15:16:00;;;;;;;3.67;1.58;;;20.50;72.80;;;;;;5053170;28;20075;-38
2023/03/04 15:18:27;;;;;;;4.28;1.60;;;20.50;72.90;;;;;;5052749;28;20238;-39
2023/03/04 15:20:53;;;;;;;6.15;1.60;;;20.50;73.00;;;;;;5056740;28;20048;-38
2023/03/04 15:23:20;;;;;;;3.33;1.42;;;20.50;73.10;;;;;;5057022;28;20052;-38
2023/03/04 15:25:47;;;;;;;4.05;1.50;;;20.50;73.30;;;;;;5055878;28;20064;-39
2023/03/04 15:28:13;;;;;;;3.90;1.58;;;20.60;73.40;;;;;;5056916;28;20033;-39
2023/03/04 15:30:40;;;;;;;5.93;1.80;;;20.50;73.40;;;;;;5057234;28;20045;-38
2023/03/04 15:33:06;;;;;;;3.97;1.50;;;20.50;73.30;;;;;;5059431;28;20056;-37
2023/03/04 15:35:33;;;;;;;4.43;1.55;;;20.60;73.50;;;;;;5075900;28;20047;-39
2023/03/04 15:38:00;;;;;;;3.28;1.50;;;20.50;73.40;;;;;;5076021;28;20048;-39
2023/03/04 15:40:27;;;;;;;4.13;1.67;;;20.60;73.60;;;;;;5077222;28;20497;-39
2023/03/04 15:42:53;;;;;;;3.45;1.50;;;20.50;73.60;;;;;;5077099;28;20375;-39
2023/03/04 15:45:20;;;;;;;3.75;1.50;;;20.50;73.40;;;;;;5075907;28;20478;-39
2023/03/04 15:47:47;;;;;;;3.58;1.52;;;20.50;73.60;;;;;;5076837;28;20570;-39
2023/03/04 15:50:13;;;;;;;5.43;1.60;;;20.50;73.50;;;;;;5077281;28;20040;-39
2023/03/04 15:52:40;;;;;;;3.47;1.40;;;20.50;73.80;;;;;;5075550;28;20045;-39
2023/03/04 15:55:06;;;;;;;3.63;1.40;;;20.50;73.70;;;;;;5077002;28;20044;-39
2023/03/04 15:57:33;;;;;;;5.60;1.73;;;20.50;73.10;;;;;;5075670;28;20041;-39
2023/03/04 16:00:00;;;;;;;4.18;1.50;;;20.50;73.10;;;;;;5076272;28;20101;-39
2023/03/04 16:02:36;;;;;;;5.60;1.50;;;20.50;72.60;;;;;;5076728;28;20127;-39
2023/03/04 16:05:03;;;;;;;3.53;1.60;;;20.50;72.30;;;;;;5075676;28;20462;-40
2023/03/04 16:07:30;;;;;;;5.90;1.75;;;20.50;72.30;;;;;;5075359;28;20121;-39
2023/03/04 16:09:57;;;;;;;4.57;1.73;;;20.40;73.50;;;;;;5076204;28;20379;-37
2023/03/04 16:12:23;;;;;;;4.20;1.70;;;20.50;74.00;;;;;;5075381;28;20055;-38
2023/03/04 16:14:51;;;;;;;4.50;1.60;;;20.50;73.40;;;;;;5076205;28;20127;-38
2023/03/04 16:17:18;;;;;;;4.50;1.60;;;20.50;73.90;;;;;;5076083;28;20048;-38
2023/03/04 16:19:44;;;;;;;4.47;1.50;;;20.50;73.70;;;;;;5075832;28;20041;-38
2023/03/04 16:22:11;;;;;;;4.88;1.90;;;20.60;74.10;;;;;;5075664;28;20044;-38
2023/03/04 16:24:38;;;;;;;3.72;1.50;;;20.70;74.10;;;;;;5074437;28;20481;-38
2023/03/04 16:27:04;;;;;;;5.70;1.83;;;20.70;74.20;;;;;;5076475;28;20036;-39
2023/03/04 16:29:31;;;;;;;3.80;1.50;;;20.80;74.30;;;;;;5068893;28;20078;-38
2023/03/04 16:31:58;;;;;;;5.30;1.50;;;20.70;74.30;;;;;;5069973;28;21985;-38
2023/03/04 16:34:25;;;;;;;4.55;1.80;;;20.80;74.10;;;;;;5053510;28;20097;-38
2023/03/04 16:36:51;;;;;;;6.80;1.80;;;20.80;74.60;;;;;;5052827;28;20040;-39
2023/03/04 16:39:18;;;;;;;5.80;1.63;;;20.80;73.70;;;;;;5034975;28;20486;-37
2023/03/04 16:41:45;;;;;;;6.07;1.80;;;20.80;74.10;;;;;;5053334;28;20041;-38
2023/03/04 16:44:13;;;;;;;4.88;1.73;;;20.80;74.20;;;;;;5053219;28;20042;-40
2023/03/04 16:46:40;;;;;;;3.70;1.55;;;20.80;73.40;;;;;;5053596;28;20053;-38
2023/03/04 16:49:07;;;;;;;3.90;1.70;;;20.90;73.80;;;;;;5054151;28;20072;-37
2023/03/04 16:51:34;;;;;;;5.10;1.75;;;20.90;74.20;;;;;;5052592;28;20037;-39
2023/03/04 16:54:00;;;;;;;3.88;1.52;;;20.90;74.10;;;;;;5053417;28;20056;-37
2023/03/04 16:56:27;;;;;;;4.22;1.70;;;20.90;74.00;;;;;;5053539;28;20111;-38
2023/03/04 16:58:54;;;;;;;5.72;1.83;;;20.90;74.00;;;;;;5052105;28;20059;-39
2023/03/04 17:01:20;;;;;;;4.22;1.80;;;20.90;74.00;;;;;;5052703;28;20045;-39
2023/03/04 17:03:47;;;;;;;5.05;1.90;;;20.90;74.00;;;;;;5051778;28;20041;-37
2023/03/04 17:06:14;;;;;;;4.45;1.70;;;20.90;73.90;;;;;;5048789;28;20431;-38
2023/03/04 17:08:41;;;;;;;4.30;1.70;;;20.90;73.90;;;;;;5054292;28;20040;-38
2023/03/04 17:11:07;;;;;;;4.15;1.77;;;20.90;74.10;;;;;;5053626;28;20061;-38
2023/03/04 17:13:34;;;;;;;4.75;1.70;;;20.90;74.30;;;;;;5054404;28;20037;-38
2023/03/04 17:16:01;;;;;;;3.80;1.60;;;20.90;74.40;;;;;;5054629;28;20040;-43
2023/03/04 17:18:27;;;;;;;3.67;1.50;;;21.00;74.60;;;;;;5053969;28;20143;-38
2023/03/04 17:20:54;;;;;;;4.18;1.60;;;21.00;74.50;;;;;;5054111;28;20094;-38
2023/03/04 17:23:21;;;;;;;5.00;2.20;;;20.90;74.10;;;;;;5054726;28;20036;-38
2023/03/04 17:25:47;;;;;;;3.97;1.60;;;21.00;74.40;;;;;;5053853;28;20048;-39
2023/03/04 17:28:14;;;;;;;4.10;1.70;;;20.90;74.30;;;;;;5054932;28;20045;-38
2023/03/04 17:30:40;;;;;;;4.25;1.80;;;21.00;74.40;;;;;;5055066;28;20045;-39
2023/03/04 17:33:07;;;;;;;5.75;2.00;;;21.00;74.10;;;;;;5055197;28;20372;-38
2023/03/04 17:35:34;;;;;;;5.30;1.90;;;21.00;73.60;;;;;;5053879;28;20053;-39
2023/03/04 17:38:00;;;;;;;4.40;1.80;;;21.00;73.30;;;;;;5054188;28;20045;-38
2023/03/04 17:40:27;;;;;;;5.03;1.90;;;21.10;73.10;;;;;;5054385;28;20045;-38
2023/03/04 17:42:54;;;;;;;4.15;1.70;;;21.10;72.90;;;;;;5053862;28;20056;-38
2023/03/04 17:45:21;;;;;;;4.78;1.90;;;21.10;72.60;;;;;;5035999;28;20045;-36
2023/03/04 17:47:47;;;;;;;3.90;1.60;;;21.10;73.30;;;;;;5054711;28;20550;-37
2023/03/04 17:50:14;;;;;;;4.20;1.80;;;21.10;72.60;;;;;;5054522;28;20044;-38
2023/03/04 17:52:40;;;;;;;4.88;1.70;;;21.20;72.70;;;;;;5053731;28;20041;-38
2023/03/04 17:55:07;;;;;;;4.72;1.80;;;21.20;72.40;;;;;;5054762;28;20470;-38
2023/03/04 17:57:34;;;;;;;4.38;1.70;;;21.20;72.40;;;;;;5052969;28;20041;-38
2023/03/04 18:00:02;;;;;;;4.97;2.08;;;21.20;72.40;;;;;;5037053;28;20060;-38
2023/03/04 18:02:29;;;;;;;6.50;1.90;;;21.20;72.10;;;;;;5054502;28;20538;-39
